Terminal Aerodrome Forecast
Issued by NWS Sterling, VA

Home | Current Version | Previous Version | Text Only | Print | Product List | Glossary On
Versions: 1 2 3 4 5 6 7 8 9 10 11 12 13 14 15 16 17 18 19 20 21 22 23 24 25 26 27 28 29
000
FTUS41 KLWX 291132
TAFBWI
TAF
KBWI 291132Z 2912/3018 32009KT P6SM SKC
     FM291600 32005KT P6SM SKC
     FM292300 20004KT P6SM FEW250
     FM300300 18008KT P6SM SCT140
     FM300600 19009KT P6SM OVC070
     FM301400 24012G21KT P6SM BKN040=

USA.gov is the U.S. government's official web portal to all federal, state and local government web resources and services.